createdAt,value
2022-11-20T00:01:04.428Z,13.89
2022-11-20T00:03:37.661Z,13.93
2022-11-20T00:06:09.412Z,13.96
2022-11-20T00:08:40.904Z,13.79
2022-11-20T00:11:16.163Z,13.99
2022-11-20T00:13:52.187Z,13.99
2022-11-20T00:16:23.642Z,13.95
2022-11-20T00:18:57.156Z,13.98
2022-11-20T00:21:31.203Z,14.07
2022-11-20T00:24:03.076Z,13.91
2022-11-20T00:26:35.530Z,14.12
2022-11-20T00:29:05.910Z,14.05
2022-11-20T00:31:37.004Z,14.14
2022-11-20T00:34:21.051Z,14.12
2022-11-20T00:36:51.517Z,14.15
2022-11-20T00:39:24.746Z,14.15
2022-11-20T00:41:59.268Z,14.20
2022-11-20T00:44:42.537Z,14.07
2022-11-20T00:47:13.043Z,14.09
2022-11-20T00:49:46.437Z,14.19
2022-11-20T00:52:34.941Z,14.18
2022-11-20T00:55:05.676Z,14.21
2022-11-20T00:57:43.043Z,14.23
2022-11-20T01:03:10.762Z,14.21
2022-11-20T01:05:43.674Z,14.12
2022-11-20T01:08:19.188Z,14.12
2022-11-20T01:10:52.594Z,14.35
2022-11-20T01:13:45.305Z,14.13
2022-11-20T01:16:18.014Z,14.31
2022-11-20T01:18:50.909Z,14.29
2022-11-20T01:21:22.416Z,14.17
2022-11-20T01:23:53.973Z,14.30
2022-11-20T01:26:24.878Z,14.15
2022-11-20T01:31:45.268Z,14.25
2022-11-20T01:34:18.228Z,14.23
2022-11-20T01:37:01.539Z,14.35
2022-11-20T01:39:36.100Z,14.30
2022-11-20T01:42:34.224Z,14.25
2022-11-20T01:45:26.365Z,14.36
2022-11-20T01:48:03.485Z,14.23
2022-11-20T01:50:36.319Z,14.35
2022-11-20T01:53:06.355Z,14.32
2022-11-20T01:55:53.793Z,14.27
2022-11-20T01:58:25.472Z,14.50
2022-11-20T02:00:55.816Z,14.50
2022-11-20T02:03:41.701Z,14.68
2022-11-20T02:06:17.334Z,14.78
2022-11-20T02:08:46.782Z,14.83
2022-11-20T02:11:19.775Z,14.83
2022-11-20T02:13:51.351Z,14.85
2022-11-20T02:16:28.911Z,14.77
2022-11-20T02:19:02.545Z,14.77
2022-11-20T02:21:36.357Z,14.81
2022-11-20T02:24:11.896Z,14.92
2022-11-20T02:26:54.637Z,15.13
2022-11-20T02:29:29.851Z,15.06
2022-11-20T02:32:00.723Z,15.15
2022-11-20T02:34:31.897Z,15.01
2022-11-20T02:37:03.487Z,15.02
2022-11-20T02:39:41.941Z,15.02
2022-11-20T02:42:12.451Z,14.90
2022-11-20T02:44:44.616Z,15.03
2022-11-20T02:47:13.010Z,14.83
2022-11-20T02:49:43.446Z,14.81
2022-11-20T02:52:18.450Z,14.82
2022-11-20T02:54:58.794Z,14.74
2022-11-20T02:57:31.669Z,14.64
2022-11-20T03:00:02.140Z,14.59
2022-11-20T03:02:34.229Z,14.68
2022-11-20T03:05:05.029Z,14.72
2022-11-20T03:07:35.117Z,14.78
2022-11-20T03:10:12.138Z,14.59
2022-11-20T03:12:44.972Z,14.61
2022-11-20T03:15:13.468Z,14.58
2022-11-20T03:17:47.007Z,14.50
2022-11-20T03:20:18.179Z,14.76
2022-11-20T03:22:48.979Z,14.58
2022-11-20T03:25:31.915Z,14.69
2022-11-20T03:28:07.948Z,14.50
2022-11-20T03:31:04.701Z,14.64
2022-11-20T03:33:37.202Z,14.72
2022-11-20T03:36:09.285Z,14.51
2022-11-20T03:38:38.171Z,14.77
2022-11-20T03:41:17.248Z,14.63
2022-11-20T03:43:54.182Z,14.71
2022-11-20T03:46:23.824Z,14.71
2022-11-20T03:48:54.848Z,14.92
2022-11-20T03:51:26.353Z,14.63
2022-11-20T03:53:59.217Z,14.76
2022-11-20T03:56:32.944Z,14.86
2022-11-20T03:59:10.060Z,14.85
2022-11-20T04:01:43.207Z,14.92
2022-11-20T04:04:18.039Z,14.95
2022-11-20T04:06:47.858Z,14.97
2022-11-20T04:09:16.791Z,14.89
2022-11-20T04:11:48.405Z,14.82
2022-11-20T04:14:19.069Z,14.74
2022-11-20T04:17:02.906Z,14.93
2022-11-20T04:19:45.914Z,14.71
2022-11-20T04:22:16.714Z,14.89
2022-11-20T04:24:47.046Z,14.72
2022-11-20T04:27:26.843Z,14.91
2022-11-20T04:29:56.644Z,14.85
2022-11-20T04:32:30.753Z,14.89
2022-11-20T04:35:00.361Z,14.80
2022-11-20T04:37:35.774Z,14.72
2022-11-20T04:40:08.683Z,14.71
2022-11-20T04:42:50.715Z,14.67
2022-11-20T04:45:22.534Z,14.87
2022-11-20T04:47:53.031Z,14.91
2022-11-20T04:50:28.694Z,14.89
2022-11-20T04:53:04.697Z,14.80
2022-11-20T04:55:35.170Z,14.78
2022-11-20T04:58:06.135Z,14.83
2022-11-20T05:00:43.628Z,14.71
2022-11-20T05:03:15.210Z,14.84
2022-11-20T05:05:50.187Z,14.97
2022-11-20T05:08:24.804Z,14.78
2022-11-20T05:10:59.310Z,14.85
2022-11-20T05:13:41.582Z,14.99
2022-11-20T05:16:17.544Z,14.87
2022-11-20T05:19:51.929Z,15.07
2022-11-20T06:09:14.850Z,15.49
2022-11-20T06:12:28.387Z,15.03
2022-11-20T06:28:03.617Z,15.04
2022-11-20T06:35:54.321Z,15.07
2022-11-20T06:44:37.079Z,15.34
2022-11-20T06:47:37.104Z,15.20
2022-11-20T06:50:38.950Z,15.20
2022-11-20T07:00:29.888Z,15.12
2022-11-20T07:04:02.166Z,14.88
2022-11-20T07:07:46.682Z,15.27
2022-11-20T07:11:09.708Z,15.19
2022-11-20T07:14:36.383Z,15.23
2022-11-20T07:17:36.072Z,15.35
2022-11-20T07:20:17.922Z,15.21
2022-11-20T07:26:39.926Z,15.22
2022-11-20T07:29:50.006Z,14.98
2022-11-20T07:39:35.804Z,14.92
2022-11-20T07:46:05.760Z,15.16
2022-11-20T08:14:36.006Z,15.08
2022-11-20T08:18:33.325Z,15.17
2022-11-20T08:29:28.551Z,15.30
2022-11-20T08:32:44.151Z,15.45
2022-11-20T08:35:43.856Z,15.23
2022-11-20T08:38:15.438Z,15.23
2022-11-20T08:44:37.908Z,15.36
2022-11-20T08:48:09.492Z,15.06
2022-11-20T08:51:23.326Z,15.03
2022-11-20T08:54:58.236Z,15.27
2022-11-20T09:01:32.388Z,15.56
2022-11-20T09:04:50.727Z,15.31
2022-11-20T09:10:39.592Z,15.68
2022-11-20T09:13:38.135Z,15.70
2022-11-20T09:16:52.665Z,15.60
2022-11-20T09:19:57.712Z,15.63
2022-11-20T09:22:47.772Z,15.66
2022-11-20T09:25:47.617Z,15.70
2022-11-20T09:35:35.563Z,16.10
2022-11-20T09:38:15.715Z,16.18
2022-11-20T09:41:03.963Z,16.01
2022-11-20T09:51:19.076Z,16.15
2022-11-20T09:54:02.730Z,16.16
2022-11-20T09:56:53.493Z,16.27
2022-11-20T10:07:42.369Z,16.06
2022-11-20T10:11:07.027Z,16.44
2022-11-20T10:22:48.938Z,16.50
2022-11-20T10:35:39.220Z,16.39
2022-11-20T10:38:19.839Z,16.32
2022-11-20T10:41:20.435Z,16.06
2022-11-20T10:48:04.033Z,16.28
2022-11-20T10:55:40.279Z,15.95
2022-11-20T10:59:08.898Z,15.33
2022-11-20T11:02:27.068Z,14.47
2022-11-20T11:05:59.292Z,13.94
2022-11-20T11:16:25.525Z,13.28
2022-11-20T11:24:42.353Z,13.75
2022-11-20T11:28:13.089Z,13.96
2022-11-20T11:31:46.116Z,14.39
2022-11-20T11:38:30.794Z,14.40
2022-11-20T11:48:51.798Z,14.64
2022-11-20T11:52:24.545Z,14.53
2022-11-20T11:56:14.220Z,14.84
2022-11-20T12:22:46.292Z,15.73
2022-11-20T12:26:15.998Z,15.75
2022-11-20T12:33:55.634Z,15.76
2022-11-20T12:41:46.889Z,15.84
2022-11-20T12:48:57.181Z,16.00
2022-11-20T12:52:37.851Z,15.93
2022-11-20T12:56:21.236Z,15.85
2022-11-20T13:00:05.090Z,16.00
2022-11-20T13:18:45.609Z,16.17
2022-11-20T13:26:18.636Z,16.32
2022-11-20T13:33:55.716Z,16.17
2022-11-20T13:42:42.555Z,16.90
2022-11-20T13:50:37.779Z,16.77
2022-11-20T15:27:21.874Z,16.10
2022-11-20T15:30:40.168Z,15.92
2022-11-20T15:42:43.183Z,15.97
2022-11-20T15:49:42.726Z,15.81
2022-11-20T16:00:55.391Z,15.66
2022-11-20T16:03:40.464Z,15.51
2022-11-20T16:28:44.927Z,15.74
